Portada
METAR-TAF:

METAR-TAF

Aeroports :

Harrisburg-Middletown, Pennsilvània, Estats Units d'Amèrica

latitud: 40-11-37N, longitud: 076-45-48W, altitud: 95 m

Observació

L'informe es va fer fa 44 minuts, a les 17:56 UTC
Vent 3 kt del Sud-Est
Temperatura 27°C
Humitat 54%
Pressió 1022 hPa
Visibilitat: 16.1 km
Cel clar

METAR: KMDT 261756Z 14003KT 10SM CLR 27/17 A3017 RMK AO2 SLP216 T02670172 10272 20183 58012

Hora: 14:40 (18:40 UTC)

Pronòstic

L'informe es va fer fa 1 hora i 20 minuts, a les 17:20 UTC
Pronòstic vàlid del 26 a les 18 UTC al 27 a les 18 UTC
Vent 3 kt del Sud
Visibilitat: 10 km
Cel clar
A partir de les 27 a les 0900 UTC
Vent 4 kt del Est/Sud-Est
Visibilitat: 9.7 km
Cel cobert a una alçada de 700 ft
boirina
A partir de les 27 a les 1600 UTC
Vent 5 kt del Sud/Sud-Est
Visibilitat: 10 km
Cel cobert a una alçada de 1500 ft

TAF: KMDT 261720Z 2618/2718 17003KT P6SM SKC FM270900 12004KT 6SM BR OVC007 FM271600 15005KT P6SM OVC015

Observacions i pronòstics meteorològics de més de 4000 aeroports (METAR i TAF).

Les estacions disponibles són els punts grocs i vermells al mapa.

Posi el ratolí al punt desitjat per veure el nom de l'estació.

Feu clic per veure les observacions i els pronòstics meteorològics.

Per canviar el mapa: feu clic els botons verds amb una creu de color negre per apropar; al botó verd amb un guió per allunyar la imatge; o en les fletxes verdes per a mapes adjacents.


METAR-TAF: